Time;durP1;ratioP1;P1;durP2;ratioP2;P2;SDS_P1;SDS_P2;PMS_P1;PMS_P2;Temp;Humidity;BMP_temperature;BMP_pressure;BME280_temperature;BME280_humidity;BME280_pressure;Samples;Min_cycle;Max_cycle;Signal;HPM_P1;HPM_P2
2022/08/28 00:01:43;;;;;;;11.25;3.33;;;;;;;;;;5056039;28;20080;-69
2022/08/28 00:04:09;;;;;;;7.68;2.80;;;;;;;;;;5055062;28;20051;-69
2022/08/28 00:06:35;;;;;;;8.23;3.00;;;;;;;;;;5055887;28;20498;-69
2022/08/28 00:09:01;;;;;;;11.15;2.95;;;;;;;;;;5056860;28;20082;-69
2022/08/28 00:11:27;;;;;;;10.30;3.05;;;;;;;;;;5054956;28;20393;-69
2022/08/28 00:13:53;;;;;;;8.05;3.08;;;;;;;;;;5056104;28;20097;-69
2022/08/28 00:16:19;;;;;;;9.63;3.20;;;;;;;;;;5054863;28;20037;-69
2022/08/28 00:18:45;;;;;;;10.10;3.55;;;;;;;;;;5055141;28;20515;-69
2022/08/28 00:21:12;;;;;;;7.82;3.35;;;;;;;;;;5038451;28;20504;-69
2022/08/28 00:23:38;;;;;;;6.38;2.78;;;;;;;;;;5063243;28;20036;-70
2022/08/28 00:26:04;;;;;;;7.40;2.55;;;;;;;;;;5054157;28;20102;-69
2022/08/28 00:28:30;;;;;;;9.00;2.97;;;;;;;;;;5055612;28;20039;-70
2022/08/28 00:30:57;;;;;;;11.23;2.90;;;;;;;;;;5054352;28;20041;-70
2022/08/28 00:33:23;;;;;;;9.65;3.13;;;;;;;;;;5072941;28;20095;-69
2022/08/28 00:35:50;;;;;;;14.32;3.67;;;;;;;;;;5055462;28;20040;-69
2022/08/28 00:38:18;;;;;;;7.25;2.70;;;;;;;;;;5054343;28;20032;-69
2022/08/28 00:40:46;;;;;;;12.30;2.90;;;;;;;;;;5063862;28;20048;-69
2022/08/28 00:43:24;;;;;;;9.18;3.13;;;;;;;;;;5035805;28;20041;-70
2022/08/28 00:45:50;;;;;;;14.20;2.92;;;;;;;;;;5071945;28;20080;-70
2022/08/28 00:48:16;;;;;;;8.43;2.97;;;;;;;;;;5054342;28;20048;-69
2022/08/28 00:53:28;;;;;;;7.82;3.25;;;;;;;;;;5068711;28;20032;-69
2022/08/28 00:55:55;;;;;;;8.73;2.92;;;;;;;;;;5055527;28;20047;-70
2022/08/28 00:58:21;;;;;;;8.45;2.78;;;;;;;;;;5072162;28;20378;-70
2022/08/28 01:00:47;;;;;;;10.48;3.13;;;;;;;;;;5072008;28;20047;-69
2022/08/28 01:03:13;;;;;;;9.55;2.65;;;;;;;;;;5054810;28;20410;-69
2022/08/28 01:05:42;;;;;;;11.07;3.10;;;;;;;;;;5055031;28;20461;-69
2022/08/28 01:08:08;;;;;;;9.88;2.80;;;;;;;;;;5071629;28;20076;-69
2022/08/28 01:10:34;;;;;;;5.95;2.65;;;;;;;;;;5054656;28;20404;-69
2022/08/28 01:13:01;;;;;;;7.43;2.78;;;;;;;;;;5054251;28;20037;-70
2022/08/28 01:15:30;;;;;;;12.60;2.95;;;;;;;;;;5037279;28;20033;-69
2022/08/28 01:17:59;;;;;;;8.32;2.53;;;;;;;;;;5072477;28;20109;-69
2022/08/28 01:20:27;;;;;;;14.07;3.80;;;;;;;;;;5070917;28;20484;-70
2022/08/28 01:22:59;;;;;;;12.45;3.25;;;;;;;;;;5054375;28;20527;-70
2022/08/28 01:25:27;;;;;;;7.22;2.70;;;;;;;;;;5072125;28;20040;-69
2022/08/28 01:27:54;;;;;;;8.63;2.80;;;;;;;;;;5053076;28;20039;-70
2022/08/28 01:30:21;;;;;;;8.00;2.85;;;;;;;;;;5053628;28;20048;-69
2022/08/28 01:32:48;;;;;;;7.45;2.20;;;;;;;;;;5054666;28;20396;-69
2022/08/28 01:35:16;;;;;;;7.80;2.72;;;;;;;;;;5071172;28;20038;-69
2022/08/28 01:37:43;;;;;;;8.27;2.63;;;;;;;;;;5072270;28;20036;-69
2022/08/28 01:40:10;;;;;;;10.20;2.72;;;;;;;;;;5071636;28;20510;-69
2022/08/28 01:42:39;;;;;;;7.93;2.92;;;;;;;;;;5037150;28;20119;-69
2022/08/28 01:45:06;;;;;;;12.40;2.70;;;;;;;;;;5071095;28;20446;-69
2022/08/28 01:47:33;;;;;;;10.43;2.65;;;;;;;;;;5071755;28;20062;-69
2022/08/28 01:49:59;;;;;;;6.63;2.33;;;;;;;;;;5053379;28;20040;-69
2022/08/28 01:52:25;;;;;;;8.52;3.35;;;;;;;;;;5053845;28;20032;-69
2022/08/28 01:54:51;;;;;;;6.65;2.30;;;;;;;;;;5072093;28;20032;-69
2022/08/28 01:57:17;;;;;;;8.65;2.83;;;;;;;;;;5052497;28;20044;-69
2022/08/28 01:59:43;;;;;;;6.22;2.28;;;;;;;;;;5053757;28;20102;-69
2022/08/28 02:02:09;;;;;;;6.18;2.40;;;;;;;;;;5053505;28;20500;-69
2022/08/28 02:04:37;;;;;;;10.07;2.45;;;;;;;;;;5053172;28;20041;-69
2022/08/28 02:07:03;;;;;;;10.35;2.50;;;;;;;;;;5053576;28;20047;-69
2022/08/28 02:09:29;;;;;;;14.75;2.80;;;;;;;;;;5053300;28;20087;-69
2022/08/28 02:11:56;;;;;;;6.72;2.53;;;;;;;;;;5037432;28;20041;-69
2022/08/28 02:14:22;;;;;;;6.00;2.22;;;;;;;;;;5071434;28;20051;-69
2022/08/28 02:16:48;;;;;;;8.82;2.38;;;;;;;;;;5071281;28;20358;-69
2022/08/28 02:19:14;;;;;;;6.82;2.70;;;;;;;;;;5053555;28;20494;-69
2022/08/28 02:21:41;;;;;;;8.95;2.72;;;;;;;;;;5072113;28;20037;-67
2022/08/28 02:24:07;;;;;;;10.50;2.70;;;;;;;;;;5052712;28;20044;-67
2022/08/28 02:26:33;;;;;;;9.70;2.75;;;;;;;;;;5053552;28;20033;-67
2022/08/28 02:28:59;;;;;;;8.70;2.58;;;;;;;;;;5054021;28;20047;-67
2022/08/28 02:31:26;;;;;;;6.93;2.10;;;;;;;;;;5052597;28;20040;-67
2022/08/28 02:33:52;;;;;;;15.27;2.80;;;;;;;;;;5071819;28;20039;-67
2022/08/28 02:36:18;;;;;;;9.45;2.97;;;;;;;;;;5053233;28;20127;-67
2022/08/28 02:38:46;;;;;;;10.65;3.22;;;;;;;;;;5052795;28;20051;-68
2022/08/28 02:41:12;;;;;;;7.82;2.25;;;;;;;;;;5036475;28;20094;-67
2022/08/28 02:43:38;;;;;;;6.70;2.28;;;;;;;;;;5053858;28;20036;-67
2022/08/28 02:46:05;;;;;;;8.68;2.58;;;;;;;;;;5052456;28;20063;-67
2022/08/28 02:48:32;;;;;;;8.55;2.90;;;;;;;;;;5054234;28;20079;-67
2022/08/28 02:51:00;;;;;;;11.07;3.42;;;;;;;;;;5053405;28;20123;-67
2022/08/28 02:53:26;;;;;;;6.97;2.40;;;;;;;;;;5070228;28;20072;-67
2022/08/28 02:55:52;;;;;;;9.00;2.45;;;;;;;;;;5053564;28;20488;-67
2022/08/28 02:58:18;;;;;;;5.35;1.95;;;;;;;;;;5053368;28;20048;-67
2022/08/28 03:00:45;;;;;;;7.20;1.98;;;;;;;;;;5053009;28;20044;-67
2022/08/28 03:03:11;;;;;;;5.90;1.77;;;;;;;;;;5036359;28;20436;-67
2022/08/28 03:05:37;;;;;;;6.00;2.03;;;;;;;;;;5052498;28;20037;-67
2022/08/28 03:08:03;;;;;;;7.00;2.20;;;;;;;;;;5070214;28;20037;-67
2022/08/28 03:10:29;;;;;;;7.15;2.00;;;;;;;;;;5072988;28;20033;-67
2022/08/28 03:12:55;;;;;;;5.63;2.17;;;;;;;;;;5074238;28;20051;-67
2022/08/28 03:15:22;;;;;;;9.38;2.35;;;;;;;;;;5056386;28;20435;-67
2022/08/28 03:17:48;;;;;;;5.28;2.00;;;;;;;;;;5057071;28;20489;-67
2022/08/28 03:20:14;;;;;;;11.88;2.25;;;;;;;;;;5055682;28;20381;-67
2022/08/28 03:25:26;;;;;;;8.02;2.45;;;;;;;;;;5073917;28;20053;-67
2022/08/28 03:27:52;;;;;;;7.88;2.55;;;;;;;;;;5055451;28;20460;-67
2022/08/28 03:30:19;;;;;;;7.57;2.38;;;;;;;;;;5055973;28;20058;-67
2022/08/28 03:32:45;;;;;;;8.40;2.33;;;;;;;;;;5056389;28;20545;-67
2022/08/28 03:35:11;;;;;;;7.40;2.42;;;;;;;;;;5055259;28;20063;-67
2022/08/28 03:37:38;;;;;;;8.00;2.28;;;;;;;;;;5056452;28;20036;-67
2022/08/28 03:40:04;;;;;;;7.78;2.05;;;;;;;;;;5056086;28;20041;-67
2022/08/28 03:42:31;;;;;;;7.68;2.13;;;;;;;;;;5039185;28;20400;-67
2022/08/28 03:44:57;;;;;;;10.10;2.42;;;;;;;;;;5053129;28;20067;-67
2022/08/28 03:47:23;;;;;;;11.38;2.90;;;;;;;;;;5052285;28;20057;-69
2022/08/28 03:49:59;;;;;;;6.75;2.28;;;;;;;;;;5052828;28;20124;-69
2022/08/28 03:52:25;;;;;;;5.55;2.00;;;;;;;;;;5052353;28;20033;-69
2022/08/28 03:54:52;;;;;;;8.82;3.28;;;;;;;;;;5035433;28;20044;-69
2022/08/28 03:57:19;;;;;;;7.10;2.25;;;;;;;;;;5035843;28;20084;-69
2022/08/28 03:59:49;;;;;;;8.57;2.92;;;;;;;;;;5052841;28;20044;-69
2022/08/28 04:02:18;;;;;;;11.38;2.65;;;;;;;;;;5051222;28;20047;-69
2022/08/28 04:04:44;;;;;;;9.27;3.00;;;;;;;;;;5052771;28;20511;-69
2022/08/28 04:07:11;;;;;;;11.02;2.13;;;;;;;;;;5053231;28;20051;-69
2022/08/28 04:09:37;;;;;;;9.70;2.85;;;;;;;;;;5053175;28;20033;-69
2022/08/28 04:12:03;;;;;;;9.25;2.63;;;;;;;;;;5052001;28;20053;-69
2022/08/28 04:14:29;;;;;;;8.60;2.17;;;;;;;;;;5053946;28;20367;-69
2022/08/28 04:16:55;;;;;;;7.97;2.20;;;;;;;;;;5051554;28;20041;-69
2022/08/28 04:19:21;;;;;;;8.93;2.47;;;;;;;;;;5053206;28;20037;-69
2022/08/28 04:21:47;;;;;;;7.20;2.72;;;;;;;;;;5052367;28;20046;-69
2022/08/28 04:24:13;;;;;;;7.47;2.45;;;;;;;;;;5052378;28;20139;-69
2022/08/28 04:26:39;;;;;;;7.00;2.75;;;;;;;;;;5051840;28;20107;-69
2022/08/28 04:29:06;;;;;;;7.55;2.03;;;;;;;;;;5051899;28;20048;-69
2022/08/28 04:31:33;;;;;;;5.78;2.00;;;;;;;;;;5051726;28;20083;-69
2022/08/28 04:34:03;;;;;;;6.75;2.38;;;;;;;;;;5052260;28;20493;-69
2022/08/28 04:36:30;;;;;;;6.30;2.92;;;;;;;;;;5053229;28;20138;-69
2022/08/28 04:38:57;;;;;;;8.23;2.50;;;;;;;;;;5051184;28;20048;-69
2022/08/28 04:41:23;;;;;;;6.80;1.95;;;;;;;;;;5052592;28;20382;-69
2022/08/28 04:43:51;;;;;;;8.63;3.08;;;;;;;;;;5053062;28;20039;-69
2022/08/28 04:46:18;;;;;;;6.32;2.08;;;;;;;;;;5050281;28;20060;-69
2022/08/28 04:48:45;;;;;;;6.38;2.45;;;;;;;;;;5051578;28;20041;-68
2022/08/28 04:51:13;;;;;;;8.25;2.40;;;;;;;;;;5033834;28;20045;-69
2022/08/28 04:53:39;;;;;;;6.10;2.05;;;;;;;;;;5052149;28;20041;-69
2022/08/28 04:56:07;;;;;;;11.25;2.03;;;;;;;;;;5050939;28;20087;-68
2022/08/28 04:58:33;;;;;;;6.22;1.98;;;;;;;;;;5051214;28;20433;-68
2022/08/28 05:01:05;;;;;;;8.75;2.40;;;;;;;;;;5034771;28;20047;-69
2022/08/28 05:03:31;;;;;;;7.15;2.38;;;;;;;;;;5053310;28;20048;-68
2022/08/28 05:05:57;;;;;;;5.85;1.98;;;;;;;;;;5050508;28;20083;-69
2022/08/28 05:08:26;;;;;;;8.68;2.45;;;;;;;;;;5050582;28;20045;-68
2022/08/28 05:10:53;;;;;;;5.38;1.80;;;;;;;;;;5046897;28;20052;-69
2022/08/28 05:13:20;;;;;;;8.73;2.55;;;;;;;;;;5031192;28;20611;-69
2022/08/28 05:15:47;;;;;;;6.20;1.60;;;;;;;;;;5050026;28;20649;-69
2022/08/28 05:18:15;;;;;;;9.18;2.30;;;;;;;;;;5048841;28;20261;-69
2022/08/28 05:20:42;;;;;;;7.13;2.75;;;;;;;;;;5047519;28;20060;-69
2022/08/28 05:23:08;;;;;;;6.15;1.77;;;;;;;;;;5046467;28;20047;-69
2022/08/28 05:25:36;;;;;;;7.80;1.83;;;;;;;;;;5048503;28;20087;-69
2022/08/28 05:28:02;;;;;;;5.50;2.42;;;;;;;;;;5057338;28;20114;-69
2022/08/28 05:30:28;;;;;;;6.53;2.22;;;;;;;;;;5048575;28;20033;-69
2022/08/28 05:32:54;;;;;;;5.22;1.45;;;;;;;;;;5045717;28;20500;-69
2022/08/28 05:35:20;;;;;;;6.45;1.80;;;;;;;;;;5047660;28;20041;-68
2022/08/28 05:37:47;;;;;;;7.95;2.45;;;;;;;;;;5049942;28;20074;-69
2022/08/28 05:40:13;;;;;;;11.02;1.92;;;;;;;;;;5048880;28;20044;-69
2022/08/28 05:42:39;;;;;;;6.90;1.98;;;;;;;;;;5045983;28;20052;-69
2022/08/28 05:45:05;;;;;;;8.00;2.10;;;;;;;;;;5053053;28;20446;-69
2022/08/28 05:47:31;;;;;;;6.18;1.88;;;;;;;;;;5050758;28;20056;-69
2022/08/28 05:49:58;;;;;;;5.97;1.73;;;;;;;;;;5051306;28;20412;-69
2022/08/28 05:52:25;;;;;;;7.07;1.50;;;;;;;;;;5034549;28;20064;-69
2022/08/28 05:54:51;;;;;;;6.38;2.33;;;;;;;;;;5051320;28;20392;-68
2022/08/28 05:57:17;;;;;;;8.07;1.80;;;;;;;;;;5068551;28;20110;-68
2022/08/28 05:59:43;;;;;;;9.85;1.42;;;;;;;;;;5069892;28;20481;-67
2022/08/28 06:02:09;;;;;;;7.15;1.80;;;;;;;;;;5067503;28;20036;-68
2022/08/28 06:04:38;;;;;;;7.68;1.77;;;;;;;;;;5048463;28;20045;-67
2022/08/28 06:07:04;;;;;;;4.50;1.77;;;;;;;;;;5053678;28;20052;-66
2022/08/28 06:09:31;;;;;;;4.65;1.80;;;;;;;;;;5052859;28;20044;-67
2022/08/28 06:11:58;;;;;;;6.88;1.70;;;;;;;;;;5053145;28;20037;-67
2022/08/28 06:14:25;;;;;;;4.85;2.03;;;;;;;;;;5071457;28;20407;-67
2022/08/28 06:16:52;;;;;;;7.72;1.92;;;;;;;;;;5071112;28;20044;-66
2022/08/28 06:19:19;;;;;;;8.48;2.28;;;;;;;;;;5053200;28;20079;-67
2022/08/28 06:21:46;;;;;;;5.70;1.35;;;;;;;;;;5054141;28;20059;-67
2022/08/28 06:24:13;;;;;;;10.57;2.17;;;;;;;;;;5070395;28;20044;-67
2022/08/28 06:26:40;;;;;;;4.68;1.80;;;;;;;;;;5071772;28;20044;-67
2022/08/28 06:29:08;;;;;;;7.05;2.03;;;;;;;;;;5071357;28;20428;-67
2022/08/28 06:31:34;;;;;;;7.95;2.10;;;;;;;;;;5053518;28;20047;-67
2022/08/28 06:34:00;;;;;;;5.93;1.73;;;;;;;;;;5053979;28;20047;-68
2022/08/28 06:36:27;;;;;;;9.90;2.33;;;;;;;;;;5053573;28;20083;-67
2022/08/28 06:38:56;;;;;;;9.30;2.15;;;;;;;;;;5070931;28;20157;-68
2022/08/28 06:41:22;;;;;;;5.45;1.77;;;;;;;;;;5053902;28;20685;-68
2022/08/28 06:43:49;;;;;;;6.82;1.90;;;;;;;;;;5071012;28;20044;-67
2022/08/28 06:46:17;;;;;;;7.20;2.05;;;;;;;;;;5055427;28;20094;-67
2022/08/28 06:48:43;;;;;;;4.88;1.55;;;;;;;;;;5057778;28;20098;-67
2022/08/28 06:51:10;;;;;;;9.45;1.85;;;;;;;;;;5073566;28;20043;-67
2022/08/28 06:53:37;;;;;;;6.18;1.50;;;;;;;;;;5057165;28;20040;-66
2022/08/28 06:56:08;;;;;;;6.90;3.05;;;;;;;;;;5074538;28;20123;-66
2022/08/28 06:58:36;;;;;;;7.15;1.88;;;;;;;;;;5036763;28;20047;-68
2022/08/28 07:01:02;;;;;;;10.85;2.33;;;;;;;;;;5069033;28;20111;-67
2022/08/28 07:03:29;;;;;;;7.28;1.83;;;;;;;;;;5057056;28;20036;-68
2022/08/28 07:05:56;;;;;;;8.20;1.80;;;;;;;;;;5055881;28;20508;-66
2022/08/28 07:08:24;;;;;;;6.47;2.08;;;;;;;;;;5074482;28;20044;-66
2022/08/28 07:10:50;;;;;;;4.60;1.40;;;;;;;;;;5074637;28;20446;-66
2022/08/28 07:13:16;;;;;;;9.43;1.90;;;;;;;;;;5073971;28;20464;-65
2022/08/28 07:15:42;;;;;;;4.53;1.90;;;;;;;;;;5056785;28;20430;-64
2022/08/28 07:18:08;;;;;;;6.03;1.77;;;;;;;;;;5056165;28;20064;-68
2022/08/28 07:20:34;;;;;;;7.78;2.10;;;;;;;;;;5073167;28;20047;-66
2022/08/28 07:23:01;;;;;;;7.63;1.70;;;;;;;;;;5057151;28;20574;-65
2022/08/28 07:25:28;;;;;;;7.50;1.50;;;;;;;;;;5074442;28;20492;-65
2022/08/28 07:27:54;;;;;;;9.05;1.73;;;;;;;;;;5055735;28;20048;-64
2022/08/28 07:30:20;;;;;;;6.32;1.70;;;;;;;;;;5055957;28;20111;-64
2022/08/28 07:32:48;;;;;;;5.45;1.88;;;;;;;;;;5057929;28;20036;-64
2022/08/28 07:35:15;;;;;;;4.78;1.73;;;;;;;;;;5056354;28;20040;-64
2022/08/28 07:37:41;;;;;;;6.68;2.08;;;;;;;;;;5056658;28;20067;-64
2022/08/28 07:40:08;;;;;;;7.10;1.90;;;;;;;;;;5055044;28;20059;-65
2022/08/28 07:45:19;;;;;;;4.97;1.42;;;;;;;;;;5055293;28;20056;-66
2022/08/28 07:47:45;;;;;;;6.40;1.75;;;;;;;;;;5073383;28;20041;-69
2022/08/28 07:50:12;;;;;;;5.43;1.77;;;;;;;;;;5055626;28;20037;-67
2022/08/28 07:52:38;;;;;;;5.47;1.73;;;;;;;;;;5074097;28;20435;-67
2022/08/28 07:55:05;;;;;;;6.75;1.60;;;;;;;;;;5054059;28;20048;-67
2022/08/28 07:57:31;;;;;;;8.05;1.80;;;;;;;;;;5056013;28;20396;-67
2022/08/28 07:59:58;;;;;;;4.80;1.50;;;;;;;;;;5039239;28;20189;-66
2022/08/28 08:02:24;;;;;;;5.63;1.90;;;;;;;;;;5068534;28;20063;-66
2022/08/28 08:04:50;;;;;;;5.70;1.83;;;;;;;;;;5074061;28;20051;-64
2022/08/28 08:07:16;;;;;;;6.53;1.73;;;;;;;;;;5055575;28;20041;-64
2022/08/28 08:09:45;;;;;;;6.03;1.85;;;;;;;;;;5055228;28;20037;-67
2022/08/28 08:12:12;;;;;;;9.85;2.53;;;;;;;;;;5073583;28;20438;-67
2022/08/28 08:14:39;;;;;;;7.07;1.83;;;;;;;;;;5038788;28;20041;-68
2022/08/28 08:17:05;;;;;;;7.32;1.92;;;;;;;;;;5072742;28;20098;-68
2022/08/28 08:19:31;;;;;;;9.32;2.75;;;;;;;;;;5055553;28;20044;-68
2022/08/28 08:21:58;;;;;;;8.07;2.20;;;;;;;;;;5055852;28;20036;-69
2022/08/28 08:24:25;;;;;;;6.90;1.80;;;;;;;;;;5071813;28;20040;-69
2022/08/28 08:26:52;;;;;;;5.60;1.75;;;;;;;;;;5073707;28;20047;-69
2022/08/28 08:29:19;;;;;;;8.02;1.83;;;;;;;;;;5054306;28;20089;-69
2022/08/28 08:31:46;;;;;;;6.03;1.83;;;;;;;;;;5073114;28;20036;-69
2022/08/28 08:34:12;;;;;;;5.40;1.85;;;;;;;;;;5054832;28;20048;-69
2022/08/28 08:36:38;;;;;;;6.80;1.75;;;;;;;;;;5037886;28;20033;-68
2022/08/28 08:39:06;;;;;;;8.80;2.28;;;;;;;;;;5072705;28;20052;-69
2022/08/28 08:41:46;;;;;;;4.70;1.70;;;;;;;;;;5054965;28;20109;-69
2022/08/28 08:44:31;;;;;;;8.65;2.15;;;;;;;;;;5037510;28;20492;-67
2022/08/28 08:47:09;;;;;;;5.15;1.58;;;;;;;;;;5072566;28;20045;-68
2022/08/28 08:49:36;;;;;;;5.32;1.88;;;;;;;;;;5073283;28;20067;-67
2022/08/28 08:52:06;;;;;;;5.22;1.60;;;;;;;;;;5053647;28;20042;-67
2022/08/28 08:54:32;;;;;;;5.85;1.80;;;;;;;;;;5038165;28;20040;-71
2022/08/28 08:57:00;;;;;;;5.97;1.83;;;;;;;;;;5054936;28;20048;-69
2022/08/28 08:59:29;;;;;;;6.20;1.67;;;;;;;;;;5071004;28;20433;-68
2022/08/28 09:01:58;;;;;;;5.85;2.03;;;;;;;;;;5073052;28;20048;-69
2022/08/28 09:04:41;;;;;;;11.32;2.83;;;;;;;;;;5053668;28;20068;-69
2022/08/28 09:07:16;;;;;;;6.00;2.45;;;;;;;;;;5053641;28;20052;-69
2022/08/28 09:09:45;;;;;;;6.93;2.42;;;;;;;;;;5055133;28;20040;-69
2022/08/28 09:12:16;;;;;;;6.50;1.60;;;;;;;;;;5036894;28;20033;-69
2022/08/28 09:15:04;;;;;;;7.05;2.55;;;;;;;;;;5072781;28;20086;-68
2022/08/28 09:17:50;;;;;;;8.60;2.45;;;;;;;;;;5038232;28;20043;-67
2022/08/28 09:20:20;;;;;;;5.28;2.08;;;;;;;;;;5036648;28;20040;-67
2022/08/28 09:22:48;;;;;;;5.35;1.80;;;;;;;;;;5072754;28;20416;-67
2022/08/28 09:25:32;;;;;;;6.38;2.10;;;;;;;;;;5037621;28;20139;-67
2022/08/28 09:28:06;;;;;;;4.72;2.03;;;;;;;;;;5053538;28;20050;-67
2022/08/28 09:30:35;;;;;;;9.10;1.60;;;;;;;;;;5035116;28;20032;-69
2022/08/28 09:33:01;;;;;;;4.90;1.75;;;;;;;;;;5032904;28;20047;-65
2022/08/28 09:35:29;;;;;;;8.40;1.98;;;;;;;;;;5054254;28;20103;-65
2022/08/28 09:37:57;;;;;;;7.78;1.65;;;;;;;;;;5054201;28;20090;-66
2022/08/28 09:40:25;;;;;;;4.25;1.40;;;;;;;;;;5070764;28;20044;-65
2022/08/28 09:43:25;;;;;;;9.35;2.72;;;;;;;;;;5072394;28;20107;-65
2022/08/28 09:46:02;;;;;;;5.43;1.60;;;;;;;;;;5072159;28;20143;-65
2022/08/28 09:48:39;;;;;;;8.98;1.90;;;;;;;;;;5036603;28;20556;-65
2022/08/28 09:51:06;;;;;;;5.85;1.63;;;;;;;;;;5053912;28;20037;-63
2022/08/28 09:53:35;;;;;;;7.20;1.63;;;;;;;;;;5053692;28;20062;-62
2022/08/28 09:56:19;;;;;;;4.47;1.73;;;;;;;;;;5069722;28;20079;-63
2022/08/28 09:58:50;;;;;;;5.22;1.70;;;;;;;;;;5054357;28;20044;-64
2022/08/28 10:01:52;;;;;;;8.38;1.95;;;;;;;;;;5052700;28;20124;-64
2022/08/28 10:04:18;;;;;;;5.68;1.90;;;;;;;;;;4973741;28;20042;-64
2022/08/28 10:07:14;;;;;;;4.88;1.63;;;;;;;;;;5038185;28;20511;-65
2022/08/28 10:09:53;;;;;;;5.60;1.70;;;;;;;;;;5054153;28;20052;-65
2022/08/28 10:12:20;;;;;;;8.75;2.13;;;;;;;;;;5071304;28;20354;-67
2022/08/28 10:15:05;;;;;;;6.93;1.67;;;;;;;;;;5053445;28;20036;-65
2022/08/28 10:17:50;;;;;;;5.25;1.23;;;;;;;;;;5071943;28;20044;-66
2022/08/28 10:20:23;;;;;;;9.73;2.55;;;;;;;;;;5057026;28;20400;-67
2022/08/28 10:22:53;;;;;;;6.95;2.40;;;;;;;;;;5075471;28;20044;-67
2022/08/28 10:25:23;;;;;;;6.15;1.67;;;;;;;;;;5075530;28;20119;-65
2022/08/28 10:28:07;;;;;;;8.32;1.92;;;;;;;;;;5075922;28;20033;-67
2022/08/28 10:30:38;;;;;;;6.07;1.95;;;;;;;;;;5057257;28;20044;-65
2022/08/28 10:33:16;;;;;;;5.85;1.80;;;;;;;;;;5057352;28;20041;-63
2022/08/28 10:35:49;;;;;;;5.90;1.63;;;;;;;;;;5075095;28;20170;-63
2022/08/28 10:38:17;;;;;;;4.80;1.33;;;;;;;;;;5057263;28;20044;-67
2022/08/28 10:40:46;;;;;;;8.02;1.75;;;;;;;;;;5057737;28;20048;-67
2022/08/28 10:43:18;;;;;;;6.28;2.65;;;;;;;;;;5074438;28;20055;-63
2022/08/28 10:45:44;;;;;;;7.78;1.88;;;;;;;;;;5041228;28;20045;-63
2022/08/28 10:48:16;;;;;;;5.13;1.77;;;;;;;;;;5057087;28;20055;-66
2022/08/28 10:50:45;;;;;;;6.13;1.73;;;;;;;;;;5057102;28;20122;-65
2022/08/28 10:53:16;;;;;;;5.30;1.92;;;;;;;;;;5074704;28;20047;-66
2022/08/28 10:55:48;;;;;;;9.15;2.28;;;;;;;;;;5075553;28;20119;-64
2022/08/28 10:58:15;;;;;;;9.30;2.10;;;;;;;;;;5056295;28;20048;-66
2022/08/28 11:00:42;;;;;;;6.47;1.80;;;;;;;;;;5075348;28;20492;-66
2022/08/28 11:03:19;;;;;;;5.95;2.17;;;;;;;;;;5074838;28;20041;-68
2022/08/28 11:05:51;;;;;;;6.63;2.10;;;;;;;;;;5056489;28;20051;-67
2022/08/28 11:08:26;;;;;;;6.03;2.03;;;;;;;;;;5074590;28;20120;-66
2022/08/28 11:10:53;;;;;;;3.78;1.35;;;;;;;;;;5040069;28;20062;-67
2022/08/28 11:13:39;;;;;;;5.85;2.30;;;;;;;;;;5039870;28;20040;-65
2022/08/28 11:16:17;;;;;;;8.48;2.05;;;;;;;;;;5074396;28;20396;-65
2022/08/28 11:18:51;;;;;;;6.57;1.65;;;;;;;;;;5074358;28;20397;-65
2022/08/28 11:21:17;;;;;;;;;;;;;;;;;;5074918;28;20047;-65
2022/08/28 11:23:47;;;;;;;6.35;1.77;;;;;;;;;;5057166;28;20299;-65
2022/08/28 11:26:14;;;;;;;11.07;2.33;;;;;;;;;;5055959;28;20036;-65
2022/08/28 11:28:46;;;;;;;6.53;2.20;;;;;;;;;;5074709;28;20037;-65
2022/08/28 11:31:12;;;;;;;6.53;1.67;;;;;;;;;;5073407;28;20504;-64
2022/08/28 11:33:51;;;;;;;8.70;2.40;;;;;;;;;;5074000;28;20037;-63
2022/08/28 11:36:28;;;;;;;4.85;2.10;;;;;;;;;;5056041;28;20036;-66
2022/08/28 11:38:54;;;;;;;4.60;1.73;;;;;;;;;;5074678;28;20460;-63
2022/08/28 11:41:26;;;;;;;6.80;2.10;;;;;;;;;;5055413;28;20040;-66
2022/08/28 11:43:59;;;;;;;5.75;1.60;;;;;;;;;;5040287;28;20056;-67
2022/08/28 11:46:27;;;;;;;6.78;2.03;;;;;;;;;;5054983;28;20067;-64
2022/08/28 11:48:56;;;;;;;5.70;1.77;;;;;;;;;;5056606;28;20076;-65
2022/08/28 11:55:00;;;;;;;4.22;1.60;;;;;;;;;;5073700;28;20040;-66
2022/08/28 11:57:45;;;;;;;6.22;1.83;;;;;;;;;;5073733;28;20163;-67
2022/08/28 12:00:21;;;;;;;6.22;1.45;;;;;;;;;;5038306;28;20044;-68
2022/08/28 12:03:06;;;;;;;4.20;1.40;;;;;;;;;;5056330;28;20051;-66
2022/08/28 12:05:32;;;;;;;4.15;1.35;;;;;;;;;;5056012;28;20488;-66
2022/08/28 12:08:00;;;;;;;5.18;1.42;;;;;;;;;;5073271;28;20043;-67
2022/08/28 12:10:26;;;;;;;5.40;1.80;;;;;;;;;;5055804;28;20043;-69
2022/08/28 12:13:00;;;;;;;3.95;1.25;;;;;;;;;;5074094;28;20115;-66
2022/08/28 12:15:29;;;;;;;5.70;1.50;;;;;;;;;;5054767;28;20171;-67
2022/08/28 12:17:56;;;;;;;5.68;1.65;;;;;;;;;;5056049;28;20052;-66
2022/08/28 12:20:34;;;;;;;5.68;1.90;;;;;;;;;;5055672;28;20461;-67
2022/08/28 12:23:03;;;;;;;5.15;1.77;;;;;;;;;;5073230;28;20102;-64
2022/08/28 12:25:31;;;;;;;4.25;1.33;;;;;;;;;;5073885;28;20458;-65
2022/08/28 12:27:59;;;;;;;4.15;1.45;;;;;;;;;;5039092;28;20040;-65
2022/08/28 12:30:39;;;;;;;4.68;1.55;;;;;;;;;;5054328;28;20530;-65
2022/08/28 12:33:09;;;;;;;5.40;1.98;;;;;;;;;;5055053;28;20041;-66
2022/08/28 12:35:35;;;;;;;5.00;1.55;;;;;;;;;;5054665;28;20043;-67
2022/08/28 12:38:03;;;;;;;8.38;1.70;;;;;;;;;;5055639;28;20480;-67
2022/08/28 12:40:30;;;;;;;6.93;1.90;;;;;;;;;;5055652;28;20049;-65
2022/08/28 12:42:57;;;;;;;4.60;1.50;;;;;;;;;;5054606;28;20082;-68
2022/08/28 12:45:41;;;;;;;3.25;1.20;;;;;;;;;;5055037;28;20087;-68
2022/08/28 12:48:17;;;;;;;5.60;1.20;;;;;;;;;;5072516;28;20123;-65
2022/08/28 12:50:43;;;;;;;6.57;2.45;;;;;;;;;;5054572;28;20038;-65
2022/08/28 12:53:15;;;;;;;7.55;2.22;;;;;;;;;;5054819;28;20044;-65
2022/08/28 12:55:41;;;;;;;5.55;1.83;;;;;;;;;;5073208;28;20033;-67
2022/08/28 12:58:26;;;;;;;4.03;1.48;;;;;;;;;;5054048;28;20062;-68
2022/08/28 13:00:55;;;;;;;4.82;1.52;;;;;;;;;;5073210;28;20040;-65
2022/08/28 13:03:21;;;;;;;6.18;1.35;;;;;;;;;;5054450;28;20439;-67
2022/08/28 13:05:55;;;;;;;8.75;2.05;;;;;;;;;;5054787;28;20044;-67
2022/08/28 13:08:22;;;;;;;6.13;1.85;;;;;;;;;;5054500;28;20089;-66
2022/08/28 13:10:48;;;;;;;4.85;1.40;;;;;;;;;;5054153;28;20076;-65
2022/08/28 13:13:19;;;;;;;4.47;1.45;;;;;;;;;;5072326;28;20044;-66
2022/08/28 13:15:52;;;;;;;3.20;1.10;;;;;;;;;;5054914;28;20040;-67
2022/08/28 13:18:33;;;;;;;7.75;1.65;;;;;;;;;;5071117;28;20492;-65
2022/08/28 13:21:12;;;;;;;3.55;1.52;;;;;;;;;;5072569;28;20040;-66
2022/08/28 13:23:38;;;;;;;9.43;1.83;;;;;;;;;;5072710;28;20393;-66
2022/08/28 13:26:05;;;;;;;6.45;1.88;;;;;;;;;;5036894;28;20510;-67
2022/08/28 13:28:36;;;;;;;5.60;2.13;;;;;;;;;;5072524;28;20049;-67
2022/08/28 13:31:02;;;;;;;6.18;1.95;;;;;;;;;;5054690;28;20123;-68
2022/08/28 13:33:28;;;;;;;6.45;1.60;;;;;;;;;;5053642;28;20037;-68
2022/08/28 13:35:54;;;;;;;5.45;1.60;;;;;;;;;;5054874;28;20427;-68
2022/08/28 13:38:21;;;;;;;4.13;1.60;;;;;;;;;;5053770;28;20500;-69
2022/08/28 13:40:53;;;;;;;4.28;1.23;;;;;;;;;;5037085;28;20051;-66
2022/08/28 13:43:20;;;;;;;8.02;1.92;;;;;;;;;;5053841;28;20489;-67
2022/08/28 13:45:47;;;;;;;6.20;1.60;;;;;;;;;;5071331;28;20052;-67
2022/08/28 13:48:15;;;;;;;8.52;2.05;;;;;;;;;;5071459;28;20089;-68
2022/08/28 13:50:42;;;;;;;7.32;2.17;;;;;;;;;;5072597;28;20041;-68
2022/08/28 13:53:08;;;;;;;4.72;1.85;;;;;;;;;;5053021;28;20388;-68
2022/08/28 13:55:34;;;;;;;9.48;2.70;;;;;;;;;;5037782;28;20037;-68
2022/08/28 13:58:01;;;;;;;6.97;1.60;;;;;;;;;;5072290;28;20060;-68
2022/08/28 14:00:29;;;;;;;5.22;1.52;;;;;;;;;;5036412;28;20044;-67
2022/08/28 14:05:42;;;;;;;7.20;1.58;;;;;;;;;;5072413;28;20445;-66
2022/08/28 14:08:08;;;;;;;6.03;1.92;;;;;;;;;;5052890;28;20067;-66
2022/08/28 14:10:34;;;;;;;7.22;2.10;;;;;;;;;;5054158;28;20040;-66
2022/08/28 14:13:01;;;;;;;6.03;2.30;;;;;;;;;;5037469;28;20139;-67
2022/08/28 14:15:27;;;;;;;4.72;2.00;;;;;;;;;;5071108;28;20064;-70
2022/08/28 14:17:53;;;;;;;5.88;1.58;;;;;;;;;;5071925;28;20051;-70
2022/08/28 14:20:19;;;;;;;7.18;1.85;;;;;;;;;;5052959;28;20052;-70
2022/08/28 14:22:45;;;;;;;5.72;1.80;;;;;;;;;;5052933;28;20090;-66
2022/08/28 14:25:11;;;;;;;6.45;1.60;;;;;;;;;;5052776;28;20040;-65
2022/08/28 14:27:37;;;;;;;7.45;1.50;;;;;;;;;;5053449;28;20040;-63
2022/08/28 14:30:05;;;;;;;8.25;1.77;;;;;;;;;;5049574;28;20051;-63
2022/08/28 14:32:31;;;;;;;5.22;1.85;;;;;;;;;;5047369;28;20048;-63
2022/08/28 14:34:57;;;;;;;8.68;2.58;;;;;;;;;;5050390;28;20045;-63
2022/08/28 14:37:23;;;;;;;4.18;1.63;;;;;;;;;;5074880;28;20048;-63
2022/08/28 14:39:49;;;;;;;4.90;1.52;;;;;;;;;;5071135;28;20503;-63
2022/08/28 14:42:16;;;;;;;6.57;2.05;;;;;;;;;;5059796;28;20055;-64
2022/08/28 14:44:42;;;;;;;5.03;1.67;;;;;;;;;;5050607;28;20049;-64
2022/08/28 14:47:08;;;;;;;6.45;1.85;;;;;;;;;;5050622;28;20189;-64
2022/08/28 14:49:34;;;;;;;6.85;1.60;;;;;;;;;;5047095;28;20049;-64
2022/08/28 14:52:00;;;;;;;3.88;1.63;;;;;;;;;;5049553;28;20477;-63
2022/08/28 14:54:27;;;;;;;6.80;1.73;;;;;;;;;;5049718;28;20044;-64
2022/08/28 14:56:53;;;;;;;5.53;2.00;;;;;;;;;;5050003;28;20131;-64
2022/08/28 14:59:24;;;;;;;5.13;2.00;;;;;;;;;;5067637;28;20390;-64
2022/08/28 15:01:58;;;;;;;6.82;2.20;;;;;;;;;;5068757;28;20040;-63
2022/08/28 15:04:24;;;;;;;6.10;1.90;;;;;;;;;;5032801;28;20045;-64
2022/08/28 15:06:55;;;;;;;6.22;1.85;;;;;;;;;;5052626;28;20041;-64